Time;durP1;ratioP1;P1;durP2;ratioP2;P2;SDS_P1;SDS_P2;PMS_P1;PMS_P2;Temp;Humidity;BMP_temperature;BMP_pressure;BME280_temperature;BME280_humidity;BME280_pressure;Samples;Min_cycle;Max_cycle;Signal;HPM_P1;HPM_P2
2021/06/28 00:00:12;;;;;;;20.67;18.48;;;21.20;99.90;;;21.58;86.42;101382.00;5116969;28;20043;-73
2021/06/28 00:02:40;;;;;;;21.60;18.85;;;21.30;99.90;;;21.58;86.19;101375.72;5116933;28;20043;-73
2021/06/28 00:05:14;;;;;;;21.15;17.65;;;21.30;99.90;;;21.49;86.33;101379.66;5116586;28;20078;-73
2021/06/28 00:07:43;;;;;;;20.88;17.90;;;21.20;99.90;;;21.53;86.40;101373.22;5116587;28;20073;-73
2021/06/28 00:10:15;;;;;;;19.90;17.80;;;21.20;99.90;;;21.58;86.17;101373.03;5116749;28;20055;-73
2021/06/28 00:12:45;;;;;;;19.58;16.73;;;21.20;99.90;;;21.58;86.12;101375.72;5098454;28;20047;-73
2021/06/28 00:15:20;;;;;;;18.92;17.05;;;21.20;99.90;;;21.41;86.20;101341.41;5117078;28;20489;-73
2021/06/28 00:17:50;;;;;;;18.58;16.67;;;21.30;99.90;;;21.48;86.14;101348.31;5116709;28;20052;-73
2021/06/28 00:20:21;;;;;;;20.17;17.70;;;21.20;99.90;;;21.59;86.10;101356.81;5116933;28;20051;-72
2021/06/28 00:22:50;;;;;;;19.50;17.02;;;21.30;99.90;;;21.56;85.87;101354.25;5116654;28;20047;-73
2021/06/28 00:25:20;;;;;;;19.48;17.35;;;21.20;99.90;;;21.59;85.89;101351.44;5116256;28;20098;-73
2021/06/28 00:27:50;;;;;;;19.17;16.58;;;21.20;99.90;;;21.56;85.69;101349.72;5116437;28;20035;-72
2021/06/28 00:30:30;;;;;;;19.30;17.33;;;21.20;99.90;;;21.55;85.96;101349.81;5116374;28;20557;-73
2021/06/28 00:32:59;;;;;;;18.23;16.27;;;21.20;99.90;;;21.35;85.91;101312.94;5116145;28;20051;-72
2021/06/28 00:35:29;;;;;;;17.80;16.05;;;21.30;99.90;;;21.49;86.11;101342.88;5115957;28;20519;-72
2021/06/28 00:37:57;;;;;;;18.73;16.50;;;21.20;99.90;;;21.49;86.23;101336.59;5116010;28;20451;-72
2021/06/28 00:40:26;;;;;;;17.52;15.73;;;21.20;99.90;;;21.51;86.19;101329.31;5116135;28;20055;-72
2021/06/28 00:42:55;;;;;;;17.88;16.08;;;21.20;99.90;;;21.49;86.27;101331.22;5116123;28;20062;-73
2021/06/28 00:45:26;;;;;;;18.85;15.05;;;21.20;99.90;;;21.50;86.38;101319.50;5116074;28;20104;-73
2021/06/28 00:47:57;;;;;;;17.17;15.48;;;21.20;99.90;;;21.48;86.24;101322.28;5097810;28;20562;-73
2021/06/28 00:50:31;;;;;;;20.88;16.73;;;21.20;99.90;;;21.46;86.37;101323.28;5116049;28;20047;-73
2021/06/28 00:53:05;;;;;;;18.98;14.98;;;21.20;99.90;;;21.48;86.52;101318.72;5116000;28;20088;-72
2021/06/28 00:55:34;;;;;;;17.40;15.13;;;21.20;99.90;;;21.50;86.42;101316.81;5115898;28;20055;-73
2021/06/28 00:58:04;;;;;;;16.77;15.05;;;21.20;99.90;;;21.45;86.25;101310.72;5115690;28;20055;-73
2021/06/28 01:00:33;;;;;;;16.70;14.85;;;21.20;99.90;;;21.34;86.40;101313.00;5115772;28;20550;-73
2021/06/28 01:03:02;;;;;;;18.85;14.52;;;21.10;99.90;;;21.31;86.58;101315.84;5115736;28;20047;-72
2021/06/28 01:05:35;;;;;;;16.52;14.82;;;21.00;99.90;;;21.26;87.14;101305.25;5114656;28;20131;-73
2021/06/28 01:08:06;;;;;;;16.60;14.07;;;21.00;99.90;;;21.26;87.17;101299.00;5115346;28;20489;-73
2021/06/28 01:10:37;;;;;;;15.30;13.68;;;21.00;99.90;;;21.19;87.25;101295.69;5115736;28;20047;-73
2021/06/28 01:13:07;;;;;;;16.88;14.90;;;21.00;99.90;;;21.20;87.15;101285.78;5115682;28;20145;-72
2021/06/28 01:15:36;;;;;;;18.50;14.82;;;21.00;99.90;;;21.15;87.31;101290.50;5097511;28;20553;-72
2021/06/28 01:18:06;;;;;;;16.43;14.83;;;20.90;99.90;;;21.01;87.13;101279.41;5115467;28;20126;-73
2021/06/28 01:20:37;;;;;;;20.20;16.70;;;20.90;99.90;;;21.18;87.30;101293.03;5115134;28;20536;-72
2021/06/28 01:23:22;;;;;;;21.20;18.92;;;20.90;99.90;;;21.22;87.21;101289.28;5115186;28;20435;-73
2021/06/28 01:25:55;;;;;;;25.13;22.58;;;20.90;99.90;;;21.24;87.25;101301.75;5115353;28;20059;-73
2021/06/28 01:28:24;;;;;;;30.95;27.65;;;20.90;99.90;;;21.19;87.34;101302.88;5115022;28;20043;-73
2021/06/28 01:30:54;;;;;;;36.22;31.90;;;20.90;99.90;;;21.17;87.20;101292.19;5115207;28;20044;-73
2021/06/28 01:33:23;;;;;;;38.22;34.03;;;20.90;99.90;;;21.23;87.17;101291.06;5115258;28;20039;-73
2021/06/28 01:35:51;;;;;;;41.75;37.10;;;20.90;99.90;;;21.19;87.24;101294.81;5115138;28;20082;-72
2021/06/28 01:38:21;;;;;;;43.80;38.13;;;20.90;99.90;;;21.19;87.24;101295.69;5114701;28;20493;-72
2021/06/28 01:40:50;;;;;;;44.90;39.38;;;20.90;99.90;;;21.13;87.36;101298.63;5096731;28;20413;-72
2021/06/28 01:43:23;;;;;;;43.13;38.33;;;20.90;99.90;;;20.60;87.28;101201.25;5096638;28;20476;-73
2021/06/28 01:45:52;;;;;;;43.00;37.97;;;20.90;99.90;;;21.09;87.16;101293.44;5096894;28;20051;-73
2021/06/28 01:48:20;;;;;;;43.47;37.85;;;20.90;99.90;;;21.16;87.19;101322.72;5096456;28;20106;-72
2021/06/28 01:50:49;;;;;;;42.40;36.92;;;20.90;99.90;;;21.18;87.17;101296.63;5114531;28;20107;-73
2021/06/28 01:53:18;;;;;;;40.13;35.83;;;20.90;99.90;;;21.17;87.02;101291.31;5096727;28;20044;-73
2021/06/28 01:55:48;;;;;;;40.47;34.95;;;20.90;99.90;;;21.21;86.93;101301.91;5114663;28;20159;-72
2021/06/28 01:58:17;;;;;;;39.95;35.38;;;20.90;99.90;;;21.11;87.01;101307.69;5114456;28;20055;-72
2021/06/28 02:00:50;;;;;;;40.13;34.65;;;20.80;99.90;;;20.98;87.08;101301.88;5114905;28;20101;-72
2021/06/28 02:03:21;;;;;;;39.03;33.53;;;20.70;99.90;;;20.92;87.73;101312.03;5114684;28;20040;-73
2021/06/28 02:05:59;;;;;;;36.17;32.08;;;20.60;99.90;;;20.57;88.48;101306.25;5114359;28;20453;-72
2021/06/28 02:08:31;;;;;;;35.22;30.67;;;20.40;99.90;;;20.12;90.35;101336.59;5114186;28;20565;-72
2021/06/28 02:11:04;;;;;;;37.95;28.80;;;20.00;99.90;;;19.98;92.76;101336.19;5114531;28;20454;-72
2021/06/28 02:13:35;;;;;;;35.72;29.80;;;19.70;99.90;;;19.94;93.97;101335.44;5114448;28;20051;-72
2021/06/28 02:16:04;;;;;;;34.10;28.40;;;19.60;99.90;;;19.69;94.59;101315.72;5114606;28;20392;-72
2021/06/28 02:18:33;;;;;;;33.90;28.83;;;19.50;99.90;;;19.72;95.51;101329.94;5113279;28;20071;-72
2021/06/28 02:21:02;;;;;;;36.55;29.42;;;19.40;99.90;;;19.75;95.73;101332.53;5113931;28;20043;-72
2021/06/28 02:23:33;;;;;;;35.13;28.55;;;19.30;99.90;;;19.98;95.09;101320.97;5113941;28;20059;-72
2021/06/28 02:26:07;;;;;;;35.80;29.00;;;19.50;99.90;;;20.15;94.27;101333.81;5095509;28;20431;-72
2021/06/28 02:28:38;;;;;;;32.38;28.23;;;19.70;99.90;;;20.22;93.65;101344.31;5095825;28;20051;-72
2021/06/28 02:31:09;;;;;;;40.95;28.92;;;19.90;99.90;;;20.30;92.84;101350.28;5114061;28;20061;-72
2021/06/28 02:33:39;;;;;;;34.38;30.63;;;20.00;99.90;;;20.32;92.50;101347.53;5114103;28;20081;-72
2021/06/28 02:36:09;;;;;;;38.80;28.90;;;20.00;99.90;;;20.13;92.85;101346.41;5113764;28;20044;-72
2021/06/28 02:38:39;;;;;;;31.30;27.90;;;19.90;99.90;;;20.21;92.96;101329.09;5113937;28;20460;-72
2021/06/28 02:41:10;;;;;;;35.67;29.48;;;19.90;99.90;;;20.42;92.58;101325.63;5114217;28;20035;-72
2021/06/28 02:43:39;;;;;;;32.65;27.55;;;20.00;99.90;;;20.53;92.18;101315.34;5113889;28;20048;-73
2021/06/28 02:46:08;;;;;;;31.40;27.65;;;20.20;99.90;;;20.66;91.59;101310.38;5113771;28;20514;-72
2021/06/28 02:48:37;;;;;;;30.70;27.27;;;20.30;99.90;;;20.68;91.05;101320.13;5113750;28;20043;-72
2021/06/28 02:51:08;;;;;;;32.97;27.95;;;20.30;99.90;;;20.44;90.99;101322.88;5113476;28;20097;-72
2021/06/28 02:53:39;;;;;;;38.00;29.33;;;20.20;99.90;;;20.35;91.46;101316.03;5095710;28;20039;-72
2021/06/28 02:56:15;;;;;;;39.47;31.65;;;20.10;99.90;;;20.16;90.90;101269.25;5113729;28;20048;-72
2021/06/28 02:58:48;;;;;;;40.70;32.10;;;20.20;99.90;;;20.34;91.22;101318.78;5113672;28;20047;-72
2021/06/28 03:01:18;;;;;;;36.35;31.08;;;20.10;99.90;;;20.48;91.20;101322.69;5113683;28;20047;-72
2021/06/28 03:03:47;;;;;;;38.00;33.25;;;20.20;99.90;;;20.53;90.79;101315.34;5113935;28;20044;-71
2021/06/28 03:06:16;;;;;;;37.22;33.15;;;20.30;99.90;;;20.58;90.65;101318.72;5113514;28;20043;-72
2021/06/28 03:08:45;;;;;;;37.88;32.75;;;20.30;99.90;;;20.62;90.18;101312.31;5095108;28;20086;-72
2021/06/28 03:11:18;;;;;;;37.58;32.05;;;20.30;99.90;;;20.14;90.18;101214.72;5113442;28;20055;-72
2021/06/28 03:13:47;;;;;;;38.75;31.33;;;20.30;99.90;;;20.72;89.93;101306.56;5113484;28;20043;-72
2021/06/28 03:16:17;;;;;;;38.28;33.13;;;20.40;99.90;;;20.81;89.59;101306.22;5113539;28;20043;-72
2021/06/28 03:18:46;;;;;;;38.47;32.13;;;20.50;99.90;;;20.85;89.43;101303.31;5113504;28;20048;-72
2021/06/28 03:21:15;;;;;;;35.05;30.85;;;20.50;99.90;;;20.92;89.09;101306.66;5113727;28;20085;-72
2021/06/28 03:23:45;;;;;;;35.63;29.60;;;20.60;99.90;;;20.94;88.78;101305.66;5113380;28;20048;-72
2021/06/28 03:26:15;;;;;;;;;;;20.60;99.90;;;21.00;88.36;101310.78;5113646;28;20439;-72
2021/06/28 03:28:44;;;;;;;34.33;29.80;;;20.70;99.90;;;21.07;87.95;101316.84;5114410;28;19919;-72
2021/06/28 03:31:12;;;;;;;34.58;28.80;;;20.70;99.90;;;21.07;87.73;101323.09;5117539;28;20100;-72
2021/06/28 03:33:41;;;;;;;33.88;29.30;;;20.70;99.90;;;21.10;87.50;101317.56;5117468;28;20055;-72
2021/06/28 03:36:10;;;;;;;31.05;27.75;;;20.70;99.90;;;21.10;87.40;101311.34;5117452;28;20041;-72
2021/06/28 03:38:39;;;;;;;30.38;27.13;;;20.70;99.90;;;21.13;87.35;101319.28;5117455;28;20097;-72
2021/06/28 03:41:07;;;;;;;30.33;26.38;;;20.70;99.90;;;21.15;87.14;101323.66;5117404;28;20048;-73
2021/06/28 03:43:37;;;;;;;33.10;26.38;;;20.70;99.90;;;21.16;86.84;101324.53;5117306;28;20400;-72
2021/06/28 03:46:06;;;;;;;33.90;26.33;;;20.70;99.90;;;21.16;86.71;101316.44;5117323;28;20048;-72
2021/06/28 03:48:34;;;;;;;29.08;26.00;;;20.80;99.90;;;21.18;86.81;101326.22;5117075;28;20289;-73
2021/06/28 03:51:04;;;;;;;28.90;25.80;;;20.80;99.90;;;21.20;86.57;101318.97;5117209;28;20043;-72
2021/06/28 03:53:32;;;;;;;27.67;24.17;;;20.80;99.90;;;21.19;86.46;101324.41;5098876;28;20070;-72
2021/06/28 03:56:06;;;;;;;27.73;24.42;;;20.80;99.90;;;21.22;86.31;101322.47;5116897;28;20044;-73
2021/06/28 03:58:38;;;;;;;27.55;23.63;;;20.80;99.90;;;21.01;86.07;101284.78;5117213;28;20047;-72
2021/06/28 04:01:08;;;;;;;28.45;24.75;;;20.80;99.90;;;21.26;86.25;101317.84;5117124;28;20047;-72
2021/06/28 04:03:37;;;;;;;26.45;23.65;;;20.90;99.90;;;21.28;85.93;101313.25;5117059;28;20051;-72
2021/06/28 04:06:08;;;;;;;28.13;23.25;;;20.90;99.90;;;21.16;85.85;101317.34;5098589;28;20040;-72
2021/06/28 04:08:39;;;;;;;25.13;22.48;;;20.90;99.90;;;21.26;85.68;101315.13;5116588;28;20377;-73
2021/06/28 04:11:08;;;;;;;25.38;21.80;;;20.90;99.90;;;21.30;85.51;101309.56;5116659;28;20044;-73
2021/06/28 04:13:38;;;;;;;25.25;22.52;;;20.90;99.90;;;21.34;85.71;101313.00;5098553;28;20039;-72
2021/06/28 04:16:07;;;;;;;24.33;20.85;;;21.00;99.90;;;21.34;85.89;101319.28;5116852;28;20089;-72
2021/06/28 04:18:36;;;;;;;23.63;20.55;;;21.00;99.90;;;21.35;85.61;101309.41;5116473;28;20382;-72
2021/06/28 04:21:04;;;;;;;21.95;19.63;;;21.00;99.90;;;21.27;85.53;101314.22;5116922;28;20071;-72
2021/06/28 04:23:33;;;;;;;24.13;19.92;;;21.00;99.90;;;21.31;85.61;101310.47;5116599;28;20047;-72
2021/06/28 04:26:02;;;;;;;21.10;18.35;;;21.00;99.90;;;20.83;85.54;101223.66;5116411;28;20048;-72
2021/06/28 04:28:30;;;;;;;21.35;18.92;;;21.00;99.90;;;21.31;85.60;101302.38;5116449;28;20120;-72
2021/06/28 04:31:00;;;;;;;21.48;18.65;;;21.00;99.90;;;21.39;85.83;101308.31;5116420;28;20047;-72
2021/06/28 04:33:29;;;;;;;21.13;19.02;;;21.10;99.90;;;21.44;85.82;101311.69;5098217;28;20096;-72
2021/06/28 04:35:58;;;;;;;20.02;17.40;;;21.10;99.90;;;21.39;85.92;101305.59;5116389;28;20082;-73
2021/06/28 04:38:29;;;;;;;23.23;17.38;;;21.10;99.90;;;21.47;85.64;101308.84;5097947;28;20044;-72
2021/06/28 04:40:57;;;;;;;20.92;18.60;;;21.20;99.90;;;21.47;85.93;101312.44;5115042;28;20135;-72
2021/06/28 04:43:26;;;;;;;19.30;17.25;;;21.20;99.90;;;21.23;86.55;101312.59;5116003;28;20114;-72
2021/06/28 04:45:54;;;;;;;21.00;17.98;;;21.00;99.90;;;21.17;87.24;101312.84;5097626;28;20378;-72
2021/06/28 04:48:24;;;;;;;19.30;17.40;;;20.90;99.90;;;21.22;87.50;101321.59;5116011;28;20035;-72
2021/06/28 04:50:52;;;;;;;20.77;18.05;;;21.00;99.90;;;21.16;87.78;101311.06;5116009;28;20039;-72
2021/06/28 04:53:21;;;;;;;22.75;18.60;;;20.90;99.90;;;21.23;87.99;101304.50;5097827;28;20085;-72
2021/06/28 04:55:50;;;;;;;20.92;18.55;;;20.90;99.90;;;21.15;88.04;101310.22;5097659;28;20052;-72
2021/06/28 04:58:18;;;;;;;20.27;18.17;;;21.00;99.90;;;21.20;88.33;101307.31;5115907;28;20040;-72
2021/06/28 05:00:46;;;;;;;20.15;17.95;;;20.90;99.90;;;20.98;89.33;101301.03;5115810;28;20065;-72
2021/06/28 05:03:15;;;;;;;20.98;18.77;;;20.80;99.90;;;20.62;90.91;101316.78;5115511;28;20050;-72
2021/06/28 05:05:45;;;;;;;21.17;18.88;;;20.50;99.90;;;20.40;92.44;101319.41;5115660;28;20040;-72
2021/06/28 05:08:13;;;;;;;22.63;19.17;;;20.20;99.90;;;20.28;94.02;101327.97;5097432;28;20039;-72
2021/06/28 05:10:42;;;;;;;20.67;18.63;;;20.00;99.90;;;20.38;93.94;101326.66;5115549;28;20380;-72
2021/06/28 05:13:12;;;;;;;;;;;20.00;99.90;;;20.06;94.56;101337.69;5116105;28;20106;-71
2021/06/28 05:15:41;;;;;;;22.75;20.38;;;19.80;99.90;;;19.91;96.20;101332.88;5115525;28;19959;-71
2021/06/28 05:18:10;;;;;;;23.67;21.17;;;19.60;99.90;;;19.85;96.43;101330.38;5115411;28;20051;-71
2021/06/28 05:20:38;;;;;;;23.77;21.17;;;19.50;99.90;;;19.66;97.03;101327.47;5115452;28;20074;-71
2021/06/28 05:23:09;;;;;;;23.45;20.63;;;19.40;99.90;;;19.54;98.17;101327.88;5115406;28;20100;-71
2021/06/28 05:25:37;;;;;;;;;;;19.30;99.90;;;19.55;98.22;101335.00;5115660;28;20051;-71
2021/06/28 05:28:06;;;;;;;26.58;20.88;;;19.20;99.90;;;19.64;98.75;101326.66;5115228;28;20407;-71
2021/06/28 05:30:35;;;;;;;25.70;20.95;;;19.30;99.90;;;19.40;98.63;101313.16;5114653;28;20075;-71
2021/06/28 05:33:04;;;;;;;25.38;22.30;;;19.20;99.90;;;19.60;99.30;101334.84;5115124;28;20108;-71
2021/06/28 05:35:32;;;;;;;24.30;21.33;;;19.20;99.90;;;19.80;98.25;101335.06;5115083;28;20086;-71
2021/06/28 05:38:01;;;;;;;26.90;22.33;;;19.40;99.90;;;20.08;98.12;101332.25;5115011;28;20052;-71
2021/06/28 05:40:31;;;;;;;24.80;22.20;;;19.60;99.90;;;20.04;96.50;101326.13;5115079;28;20122;-71
2021/06/28 05:43:00;;;;;;;25.52;21.90;;;19.70;99.90;;;20.33;96.62;101311.66;5115279;28;20051;-72
2021/06/28 05:45:28;;;;;;;24.52;22.02;;;19.90;99.90;;;20.71;95.81;101323.63;5115011;28;20079;-72
2021/06/28 05:47:57;;;;;;;22.85;20.58;;;20.30;99.90;;;20.92;94.30;101309.34;5096527;28;20055;-72
2021/06/28 05:50:26;;;;;;;23.85;20.63;;;20.60;99.90;;;20.62;91.96;101315.00;5114810;28;20040;-71
2021/06/28 05:52:56;;;;;;;23.08;20.73;;;20.40;99.90;;;20.80;92.57;101308.03;5114430;28;20147;-72
2021/06/28 05:55:25;;;;;;;21.85;19.67;;;20.50;99.90;;;21.05;91.79;101297.19;5114724;28;20369;-72
2021/06/28 05:57:55;;;;;;;23.20;20.70;;;20.70;99.90;;;20.91;90.50;101294.13;5114751;28;20073;-71
2021/06/28 06:00:23;;;;;;;22.50;20.20;;;20.60;99.90;;;20.82;91.80;101289.13;5114393;28;20047;-71
2021/06/28 06:02:52;;;;;;;28.15;20.15;;;20.60;99.90;;;20.61;92.31;101291.72;5114619;28;20050;-71
2021/06/28 06:05:21;;;;;;;20.52;18.45;;;20.40;99.90;;;20.69;92.72;101294.13;5096318;28;20050;-71
2021/06/28 06:07:49;;;;;;;22.65;20.23;;;20.30;99.90;;;20.72;91.85;101268.91;5096222;28;20829;-71
2021/06/28 06:10:18;;;;;;;22.30;19.85;;;20.50;99.90;;;21.11;90.96;101291.56;5114123;28;20164;-71
2021/06/28 06:12:49;;;;;;;22.45;20.23;;;20.70;99.90;;;21.11;90.55;101281.69;5114420;28;20049;-72
2021/06/28 06:15:19;;;;;;;22.27;20.17;;;20.80;99.90;;;21.17;89.63;101285.94;5114107;28;20531;-71
2021/06/28 06:17:47;;;;;;;23.38;20.88;;;20.80;99.90;;;21.40;88.81;101277.75;5114598;28;20047;-71
2021/06/28 06:20:20;;;;;;;22.15;19.88;;;21.00;99.90;;;21.50;87.86;101271.06;5096041;28;20134;-71
2021/06/28 06:22:49;;;;;;;23.48;20.98;;;21.20;99.90;;;21.38;87.63;101277.84;5114225;28;20397;-72
2021/06/28 06:25:17;;;;;;;23.40;20.88;;;21.10;99.90;;;21.63;87.01;101272.28;5114123;28;20055;-71
2021/06/28 06:27:46;;;;;;;23.35;20.58;;;21.30;99.90;;;21.70;86.30;101281.81;5114136;28;20108;-72
2021/06/28 06:30:16;;;;;;;22.58;20.10;;;21.40;99.90;;;21.76;85.30;101275.28;5113952;28;20081;-72
2021/06/28 06:32:48;;;;;;;22.48;20.15;;;21.50;99.90;;;21.81;85.32;101270.63;5114118;28;20064;-72
2021/06/28 06:35:20;;;;;;;23.45;20.15;;;21.50;99.90;;;21.58;86.54;101277.84;5114082;28;20044;-71
2021/06/28 06:37:50;;;;;;;23.02;20.70;;;21.40;99.90;;;21.49;86.08;101277.38;5095808;28;20051;-72
2021/06/28 06:40:18;;;;;;;22.95;19.02;;;21.20;99.90;;;21.81;85.67;101282.28;5113855;28;20048;-72
2021/06/28 06:42:47;;;;;;;20.90;18.95;;;21.40;99.90;;;22.06;85.88;101271.28;5113861;28;20035;-72
2021/06/28 06:45:16;;;;;;;22.60;20.30;;;21.70;99.90;;;22.15;85.34;101277.13;5113770;28;20048;-72
2021/06/28 06:47:46;;;;;;;24.08;20.10;;;21.90;99.90;;;21.59;85.33;101267.94;5113732;28;20039;-72
2021/06/28 06:50:16;;;;;;;22.60;20.23;;;21.60;99.90;;;21.82;85.35;101280.44;5095279;28;20051;-72
2021/06/28 06:52:47;;;;;;;23.23;20.83;;;21.50;99.90;;;21.81;84.38;101290.38;5113614;28;20071;-72
2021/06/28 06:55:17;;;;;;;22.15;19.73;;;21.60;99.90;;;21.80;84.58;101285.91;5113839;28;20040;-72
2021/06/28 06:57:46;;;;;;;21.55;19.35;;;21.50;99.90;;;21.40;84.54;101191.63;5113760;28;20058;-71
2021/06/28 07:00:18;;;;;;;22.80;20.20;;;21.60;99.90;;;22.16;84.17;101286.94;5113720;28;20047;-71
2021/06/28 07:02:50;;;;;;;22.77;20.48;;;21.80;99.90;;;21.95;83.82;101290.59;5113414;28;20067;-72
2021/06/28 07:05:19;;;;;;;23.55;20.80;;;21.70;99.90;;;21.36;84.29;101217.81;5113315;28;20051;-71
2021/06/28 07:07:48;;;;;;;23.42;21.02;;;21.60;99.90;;;21.72;87.10;101287.16;5113232;28;20378;-72
2021/06/28 07:10:18;;;;;;;23.65;19.85;;;21.40;99.90;;;21.39;85.26;101298.41;5113405;28;20417;-71
2021/06/28 07:12:48;;;;;;;24.02;21.67;;;21.30;99.90;;;21.88;85.80;101305.31;5095273;28;20036;-72
2021/06/28 07:15:19;;;;;;;24.85;22.08;;;21.50;99.90;;;21.99;85.10;101300.31;5113693;28;20054;-72
2021/06/28 07:17:50;;;;;;;24.65;22.02;;;21.60;99.90;;;21.86;84.05;101298.22;5113183;28;20069;-72
2021/06/28 07:20:21;;;;;;;22.20;19.92;;;21.60;99.90;;;22.17;84.97;101312.97;5113193;28;20435;-72
2021/06/28 07:22:53;;;;;;;22.65;20.38;;;21.70;99.90;;;22.56;84.69;101312.97;5113202;28;20096;-72
2021/06/28 07:25:23;;;;;;;23.30;21.05;;;22.10;99.90;;;22.74;83.01;101309.44;5112637;28;20055;-71
2021/06/28 07:27:53;;;;;;;23.63;21.15;;;22.40;99.90;;;23.03;82.17;101321.53;5113453;28;20051;-72
2021/06/28 07:30:24;;;;;;;22.55;20.30;;;22.70;99.90;;;23.26;81.08;101321.28;5094957;28;20051;-71
2021/06/28 07:32:54;;;;;;;24.65;22.00;;;22.90;99.90;;;23.18;78.92;101320.78;5113076;28;20397;-71
2021/06/28 07:35:24;;;;;;;24.38;21.77;;;23.10;99.90;;;22.58;78.32;101315.63;5113563;28;20058;-71
2021/06/28 07:37:53;;;;;;;33.50;26.15;;;22.60;99.90;;;22.86;79.47;101318.78;5113277;28;20046;-72
2021/06/28 07:40:22;;;;;;;24.13;21.33;;;22.50;99.90;;;22.31;80.11;101313.22;5094647;28;20074;-71
2021/06/28 07:42:51;;;;;;;26.27;23.60;;;22.10;99.90;;;22.39;80.41;101310.19;5113422;28;20040;-71
2021/06/28 07:45:23;;;;;;;25.85;23.05;;;22.00;99.90;;;22.26;80.38;101290.97;5113180;28;20048;-72
2021/06/28 07:47:53;;;;;;;25.52;22.75;;;22.00;99.90;;;21.97;81.55;101317.50;5113377;28;20052;-72
2021/06/28 07:50:22;;;;;;;28.05;24.75;;;21.70;99.90;;;22.06;83.07;101319.78;5112885;28;20031;-72
2021/06/28 07:52:50;;;;;;;27.20;23.98;;;21.70;99.90;;;22.29;82.73;101304.34;5112829;28;20067;-72
2021/06/28 07:55:19;;;;;;;24.95;22.40;;;21.80;99.90;;;22.46;82.58;101317.03;5112995;28;20060;-72
2021/06/28 07:57:48;;;;;;;25.58;22.88;;;22.00;99.90;;;22.73;81.00;101331.97;5094545;28;20044;-72
2021/06/28 08:00:19;;;;;;;26.05;23.27;;;22.30;99.90;;;22.82;80.13;101323.41;5113084;28;20511;-72
2021/06/28 08:02:49;;;;;;;26.08;23.30;;;22.40;99.90;;;23.13;82.59;101325.53;5113297;28;20071;-72
2021/06/28 08:05:18;;;;;;;26.58;23.23;;;22.70;99.90;;;23.44;79.09;101331.19;5112953;28;20051;-72
2021/06/28 08:07:48;;;;;;;25.88;23.10;;;23.10;99.90;;;23.56;78.06;101332.38;5113262;28;20040;-72
2021/06/28 08:10:16;;;;;;;24.77;21.98;;;23.20;99.90;;;23.82;78.61;101322.03;5112862;28;20110;-72
2021/06/28 08:12:47;;;;;;;29.80;22.00;;;23.40;99.90;;;23.74;77.54;101328.75;5112898;28;20104;-73
2021/06/28 08:15:19;;;;;;;24.52;21.95;;;23.50;99.90;;;23.04;78.85;101328.66;5114545;28;20126;-72
2021/06/28 08:17:48;;;;;;;24.92;22.33;;;23.00;99.90;;;23.14;79.96;101343.47;5116618;28;20043;-72
2021/06/28 08:20:20;;;;;;;25.87;23.17;;;22.80;99.90;;;23.08;79.95;101339.25;5097933;28;20052;-72
2021/06/28 08:22:49;;;;;;;28.63;24.40;;;22.80;99.90;;;23.00;79.36;101327.94;5098318;28;20562;-72
2021/06/28 08:25:19;;;;;;;26.20;23.35;;;22.70;99.90;;;23.67;79.76;101349.84;5116097;28;20048;-71
2021/06/28 08:27:47;;;;;;;25.10;22.53;;;23.20;99.90;;;23.58;77.38;101342.16;5116371;28;20051;-72
2021/06/28 08:30:19;;;;;;;27.35;22.20;;;23.30;99.90;;;23.88;76.74;101348.72;5116402;28;20054;-72
2021/06/28 08:32:48;;;;;;;23.60;21.15;;;23.50;99.90;;;23.63;76.51;101344.66;5116478;28;20043;-72
2021/06/28 08:35:18;;;;;;;24.27;21.48;;;23.40;99.90;;;23.60;77.56;101340.28;5098224;28;20054;-72
2021/06/28 08:37:46;;;;;;;23.35;20.58;;;23.30;99.90;;;24.00;77.08;101342.66;5115996;28;20044;-72
2021/06/28 08:40:15;;;;;;;25.00;21.30;;;23.60;99.90;;;24.19;75.84;101342.63;5116194;28;20454;-72
2021/06/28 08:42:45;;;;;;;23.83;21.42;;;23.90;99.90;;;24.19;75.38;101321.00;5116189;28;20056;-73
2021/06/28 08:45:15;;;;;;;23.05;20.08;;;23.90;99.90;;;24.70;75.41;101342.50;5116240;28;20117;-72
2021/06/28 08:47:45;;;;;;;22.25;19.85;;;24.40;99.90;;;24.39;73.65;101339.72;5115954;28;20389;-72
2021/06/28 08:50:13;;;;;;;25.42;21.95;;;24.30;99.90;;;23.91;75.74;101344.97;5116132;28;20500;-72
2021/06/28 08:52:44;;;;;;;23.30;20.98;;;23.70;99.90;;;23.77;75.55;101348.38;5115958;28;20055;-72
2021/06/28 08:55:14;;;;;;;23.95;21.55;;;23.50;99.90;;;24.07;76.50;101318.94;5116043;28;20043;-72
2021/06/28 08:57:42;;;;;;;22.33;19.95;;;23.80;99.90;;;24.64;75.24;101348.22;5115946;28;20040;-72
2021/06/28 09:00:15;;;;;;;24.08;21.77;;;24.20;99.90;;;24.54;75.10;101347.03;5115845;28;20085;-72
2021/06/28 09:02:45;;;;;;;22.08;19.85;;;24.20;99.90;;;24.82;74.77;101346.38;5115973;28;20057;-73
2021/06/28 09:05:14;;;;;;;20.83;18.63;;;24.50;99.90;;;25.00;72.86;101348.06;5097635;28;20085;-72
2021/06/28 09:07:44;;;;;;;21.67;19.42;;;24.70;99.90;;;25.11;72.09;101344.75;5115607;28;20569;-73
2021/06/28 09:10:34;;;;;;;22.05;19.88;;;24.80;99.90;;;25.21;71.53;101346.84;5115410;28;20059;-72
2021/06/28 09:13:05;;;;;;;22.45;19.60;;;25.00;99.90;;;25.32;71.30;101349.81;5115544;28;20135;-72
2021/06/28 09:15:39;;;;;;;20.67;18.67;;;25.10;99.90;;;25.43;71.04;101358.25;5115333;28;20036;-72
2021/06/28 09:18:23;;;;;;;25.48;21.48;;;25.20;99.90;;;25.52;70.83;101362.22;5097381;28;20071;-72
2021/06/28 09:20:53;;;;;;;21.20;18.67;;;25.20;99.90;;;25.57;70.19;101361.00;5097206;28;20047;-72
2021/06/28 09:23:25;;;;;;;;;;;25.30;99.90;;;25.34;69.82;101360.59;5116093;28;20051;-72
2021/06/28 09:25:58;;;;;;;21.83;19.65;;;25.20;99.90;;;25.33;70.02;101366.94;5114768;28;19927;-72
2021/06/28 09:28:39;;;;;;;21.10;18.88;;;25.00;99.90;;;25.42;70.00;101358.31;5115121;28;20054;-72
2021/06/28 09:31:08;;;;;;;20.02;18.05;;;25.10;99.90;;;25.62;69.46;101372.47;5114976;28;20032;-72
2021/06/28 09:33:37;;;;;;;19.90;17.90;;;25.30;99.90;;;25.57;69.33;101361.00;5096939;28;20480;-72
2021/06/28 09:36:22;;;;;;;21.20;19.08;;;25.40;99.90;;;25.64;68.62;101356.97;5115128;28;20040;-72
2021/06/28 09:38:52;;;;;;;22.83;20.40;;;25.40;99.90;;;25.63;67.95;101366.06;5114930;28;20509;-72
2021/06/28 09:41:28;;;;;;;20.52;18.42;;;25.30;99.90;;;25.66;68.29;101371.31;5115643;28;20048;-72
2021/06/28 09:44:03;;;;;;;20.90;18.88;;;25.40;99.90;;;25.72;68.10;101370.97;5115114;28;20055;-72
2021/06/28 09:46:32;;;;;;;20.05;17.73;;;25.50;99.90;;;25.70;68.38;101374.72;5114779;28;20043;-72
2021/06/28 09:49:02;;;;;;;21.45;18.02;;;25.50;99.90;;;25.77;68.08;101371.56;5114845;28;20050;-72
2021/06/28 09:51:32;;;;;;;19.92;18.02;;;25.50;99.90;;;25.78;68.40;101381.41;5096423;28;20040;-72
2021/06/28 09:54:21;;;;;;;20.42;18.33;;;25.50;99.90;;;25.81;67.61;101380.38;5096501;28;20039;-72
2021/06/28 09:56:52;;;;;;;19.58;17.48;;;25.50;99.90;;;25.79;68.06;101380.47;5114610;28;20047;-72
2021/06/28 09:59:27;;;;;;;19.52;16.90;;;25.50;99.90;;;25.80;68.97;101381.34;5114756;28;20044;-72
2021/06/28 10:02:19;;;;;;;19.98;17.60;;;25.50;99.90;;;25.79;68.99;101388.59;5114602;28;20057;-72
2021/06/28 10:04:55;;;;;;;19.08;17.15;;;25.50;99.90;;;25.78;68.97;101381.41;5114633;28;20050;-72
2021/06/28 10:07:31;;;;;;;18.48;16.63;;;25.50;99.90;;;25.79;69.07;101377.75;5114644;28;20039;-72
2021/06/28 10:10:25;;;;;;;20.20;18.20;;;25.50;99.90;;;25.81;69.26;101386.66;5114552;28;20058;-72
2021/06/28 10:13:04;;;;;;;19.80;17.70;;;25.50;99.90;;;25.85;68.99;101380.09;5111211;28;20080;-72